Time;durP1;ratioP1;P1;durP2;ratioP2;P2;SDS_P1;SDS_P2;PMS_P1;PMS_P2;Temp;Humidity;BMP_temperature;BMP_pressure;BME280_temperature;BME280_humidity;BME280_pressure;Samples;Min_cycle;Max_cycle;Signal;HPM_P1;HPM_P2
2023/05/15 00:00:09;;;;;;;6.70;5.88;;;14.10;77.90;;;;;;5010433;28;20025;-80
2023/05/15 00:02:36;;;;;;;7.35;5.28;;;14.10;79.20;;;;;;5027451;28;20136;-80
2023/05/15 00:05:03;;;;;;;4.80;3.80;;;14.10;79.30;;;;;;5042013;28;20029;-80
2023/05/15 00:07:29;;;;;;;6.32;4.75;;;14.30;80.10;;;;;;5026854;28;20033;-80
2023/05/15 00:09:54;;;;;;;5.20;3.65;;;14.40;79.40;;;;;;5026450;28;20144;-80
2023/05/15 00:12:20;;;;;;;7.32;4.70;;;14.20;79.20;;;;;;5009295;28;20041;-80
2023/05/15 00:14:45;;;;;;;4.28;3.90;;;14.10;80.30;;;;;;5025837;28;20025;-79
2023/05/15 00:17:11;;;;;;;6.25;5.35;;;14.10;80.20;;;;;;5026699;28;20039;-80
2023/05/15 00:19:37;;;;;;;4.30;3.90;;;14.00;81.30;;;;;;5008028;28;20064;-80
2023/05/15 00:22:03;;;;;;;4.63;4.22;;;14.20;81.10;;;;;;5026527;28;20112;-79
2023/05/15 00:24:28;;;;;;;4.18;3.80;;;14.40;82.00;;;;;;5009417;28;20580;-79
2023/05/15 00:26:54;;;;;;;7.75;5.28;;;14.40;79.90;;;;;;5023349;28;20044;-79
2023/05/15 00:29:19;;;;;;;5.72;4.00;;;14.00;80.30;;;;;;5026569;28;20029;-79
2023/05/15 00:31:45;;;;;;;5.20;4.60;;;13.90;81.70;;;;;;5009367;28;20056;-78
2023/05/15 00:34:10;;;;;;;5.85;4.00;;;13.90;81.90;;;;;;5020016;28;20049;-79
2023/05/15 00:36:36;;;;;;;5.03;4.53;;;13.80;82.40;;;;;;5025453;28;20033;-80
2023/05/15 00:39:01;;;;;;;5.38;4.70;;;13.90;83.20;;;;;;5010378;28;20405;-79
2023/05/15 00:41:27;;;;;;;4.95;4.10;;;14.10;84.30;;;;;;5025126;28;20036;-79
2023/05/15 00:43:53;;;;;;;6.00;4.53;;;14.20;83.60;;;;;;5039169;28;20039;-80
2023/05/15 00:46:19;;;;;;;7.78;3.85;;;14.10;83.00;;;;;;5008014;28;20025;-79
2023/05/15 00:48:44;;;;;;;6.50;4.00;;;14.00;83.40;;;;;;5009857;28;20560;-80
2023/05/15 00:51:10;;;;;;;4.85;4.32;;;14.00;83.70;;;;;;5041182;28;20116;-79
2023/05/15 00:53:37;;;;;;;6.38;3.67;;;14.00;84.90;;;;;;5041988;28;20083;-79
2023/05/15 00:56:02;;;;;;;3.95;3.60;;;13.80;84.00;;;;;;5025917;28;20117;-80
2023/05/15 00:58:28;;;;;;;4.13;3.72;;;13.60;84.10;;;;;;5025654;28;20108;-79
2023/05/15 01:00:54;;;;;;;6.25;5.68;;;13.50;84.60;;;;;;5023748;28;20029;-79
2023/05/15 01:03:20;;;;;;;5.15;4.15;;;13.40;84.50;;;;;;5025365;28;20041;-79
2023/05/15 01:05:46;;;;;;;6.72;4.65;;;13.20;85.00;;;;;;5009891;28;20626;-79
2023/05/15 01:08:22;;;;;;;15.15;7.05;;;13.20;85.40;;;;;;5038615;28;20503;-79
2023/05/15 01:10:50;;;;;;;9.57;6.70;;;13.20;85.40;;;;;;5024102;28;20428;-80
2023/05/15 01:13:16;;;;;;;6.82;5.10;;;13.10;85.50;;;;;;5038041;28;20045;-79
2023/05/15 01:15:42;;;;;;;8.25;5.63;;;13.10;86.10;;;;;;5007630;28;20033;-79
2023/05/15 01:18:08;;;;;;;6.70;6.03;;;13.20;86.60;;;;;;5007754;28;20136;-79
2023/05/15 01:20:39;;;;;;;4.80;4.30;;;13.20;85.60;;;;;;5010026;28;20124;-80
2023/05/15 01:23:11;;;;;;;8.10;5.28;;;13.20;86.60;;;;;;5008635;28;20036;-79
2023/05/15 01:25:52;;;;;;;5.88;4.47;;;13.10;85.70;;;;;;5024307;28;20409;-80
2023/05/15 01:28:24;;;;;;;4.28;3.88;;;13.10;86.80;;;;;;5042913;28;20021;-79
2023/05/15 01:30:50;;;;;;;5.75;4.78;;;13.10;86.90;;;;;;5022456;28;20059;-79
2023/05/15 01:33:23;;;;;;;7.70;6.00;;;13.00;87.50;;;;;;5036851;28;20189;-79
2023/05/15 01:35:57;;;;;;;6.78;5.03;;;13.00;87.10;;;;;;5038167;28;20034;-78
2023/05/15 01:38:49;;;;;;;9.52;6.30;;;12.80;87.60;;;;;;5037011;28;20493;-79
2023/05/15 01:41:17;;;;;;;6.13;5.53;;;12.90;89.00;;;;;;5040179;28;20136;-79
2023/05/15 01:43:44;;;;;;;7.07;6.13;;;12.80;88.20;;;;;;5040884;28;20060;-79
2023/05/15 01:46:12;;;;;;;7.05;6.30;;;12.80;88.20;;;;;;5006274;28;20723;-79
2023/05/15 01:48:38;;;;;;;7.30;4.93;;;12.80;89.30;;;;;;5006336;28;20021;-79
2023/05/15 01:51:04;;;;;;;8.50;6.30;;;12.70;89.20;;;;;;5024370;28;20045;-79
2023/05/15 01:53:30;;;;;;;8.43;6.00;;;12.70;90.00;;;;;;5008179;28;20033;-79
2023/05/15 01:55:56;;;;;;;7.72;5.90;;;12.60;89.70;;;;;;5020959;28;20037;-79
2023/05/15 01:58:22;;;;;;;12.98;8.48;;;12.50;89.80;;;;;;5024907;28;20040;-80
2023/05/15 02:00:48;;;;;;;7.05;6.03;;;12.50;90.00;;;;;;5024979;28;20060;-79
2023/05/15 02:03:14;;;;;;;8.38;6.25;;;12.50;90.40;;;;;;5038335;28;20040;-79
2023/05/15 02:05:39;;;;;;;5.82;4.80;;;12.60;90.60;;;;;;5025242;28;20032;-79
2023/05/15 02:08:05;;;;;;;5.80;5.18;;;12.60;90.50;;;;;;5008317;28;20036;-79
2023/05/15 02:10:31;;;;;;;6.95;6.25;;;12.50;90.90;;;;;;5007729;28;20040;-79
2023/05/15 02:12:57;;;;;;;9.63;6.53;;;12.60;91.40;;;;;;5024635;28;20467;-81
2023/05/15 02:15:22;;;;;;;12.32;8.45;;;12.50;90.90;;;;;;5008477;28;20109;-81
2023/05/15 02:17:48;;;;;;;9.25;6.72;;;12.30;91.10;;;;;;5008042;28;20033;-81
2023/05/15 02:20:14;;;;;;;9.63;7.50;;;12.30;91.40;;;;;;5006249;28;20112;-81
2023/05/15 02:22:39;;;;;;;8.15;7.30;;;12.30;91.20;;;;;;5041154;28;20061;-81
2023/05/15 02:25:05;;;;;;;8.13;7.10;;;12.30;91.70;;;;;;5023765;28;21038;-81
2023/05/15 02:27:50;;;;;;;12.25;8.82;;;12.30;91.90;;;;;;5023426;28;20373;-79
2023/05/15 02:30:37;;;;;;;8.48;7.00;;;12.50;92.60;;;;;;5024106;28;20029;-81
2023/05/15 02:33:18;;;;;;;11.18;7.55;;;12.40;92.50;;;;;;5037644;28;20028;-80
2023/05/15 02:35:51;;;;;;;10.82;8.75;;;12.30;92.10;;;;;;5037634;28;20033;-81
2023/05/15 02:38:19;;;;;;;8.10;5.32;;;12.40;92.30;;;;;;5024023;28;20058;-80
2023/05/15 02:40:45;;;;;;;22.10;12.80;;;12.40;92.70;;;;;;5006989;28;20507;-80
2023/05/15 02:43:10;;;;;;;10.20;7.97;;;12.30;94.80;;;;;;5007343;28;20108;-80
2023/05/15 02:45:36;;;;;;;20.75;11.85;;;12.40;93.10;;;;;;5011374;28;20036;-80
2023/05/15 02:48:01;;;;;;;14.57;11.05;;;12.50;97.50;;;;;;5044458;28;20408;-80
2023/05/15 02:50:27;;;;;;;12.77;9.23;;;12.30;93.70;;;;;;5043827;28;20025;-80
2023/05/15 02:53:03;;;;;;;20.10;13.98;;;12.40;93.80;;;;;;5024498;28;20025;-80
2023/05/15 02:55:28;;;;;;;20.98;12.85;;;12.60;96.20;;;;;;5044374;28;20067;-80
2023/05/15 02:57:54;;;;;;;12.05;9.07;;;12.50;95.00;;;;;;5027976;28;20068;-80
2023/05/15 03:00:19;;;;;;;14.05;8.63;;;12.50;95.10;;;;;;5026491;28;20037;-80
2023/05/15 03:02:45;;;;;;;13.07;8.43;;;12.60;96.60;;;;;;5026739;28;20025;-80
2023/05/15 03:05:11;;;;;;;15.35;10.63;;;12.80;95.00;;;;;;5005412;28;20398;-80
2023/05/15 03:07:36;;;;;;;23.27;13.63;;;12.90;95.20;;;;;;5027300;28;20021;-80
2023/05/15 03:10:03;;;;;;;39.90;22.90;;;13.10;95.20;;;;;;5043190;28;20622;-80
2023/05/15 03:12:28;;;;;;;41.30;23.60;;;13.10;96.80;;;;;;5043663;28;20560;-80
2023/05/15 03:14:54;;;;;;;40.42;21.33;;;13.00;95.70;;;;;;5027271;28;20073;-80
2023/05/15 03:17:20;;;;;;;51.45;28.33;;;13.10;96.90;;;;;;5026886;28;20025;-79
2023/05/15 03:19:45;;;;;;;54.63;28.80;;;13.10;99.10;;;;;;5028058;28;20036;-79
2023/05/15 03:22:11;;;;;;;67.85;34.88;;;13.10;97.10;;;;;;5026976;28;20387;-81
2023/05/15 03:24:37;;;;;;;60.20;29.88;;;13.10;99.90;;;;;;5040758;28;20552;-80
2023/05/15 03:27:04;;;;;;;38.63;20.30;;;13.20;97.90;;;;;;5026985;28;20033;-80
2023/05/15 03:29:29;;;;;;;70.55;37.10;;;13.10;99.10;;;;;;5027885;28;20120;-79
2023/05/15 03:31:55;;;;;;;33.55;18.83;;;13.10;99.90;;;;;;5043512;28;20152;-81
2023/05/15 03:34:20;;;;;;;52.25;30.65;;;13.10;99.80;;;;;;5028017;28;20481;-81
2023/05/15 03:36:46;;;;;;;39.42;22.73;;;13.20;99.10;;;;;;5011945;28;20029;-81
2023/05/15 03:39:11;;;;;;;42.03;23.80;;;13.30;99.80;;;;;;5026906;28;20401;-81
2023/05/15 03:41:37;;;;;;;44.15;25.08;;;13.30;99.90;;;;;;5044230;28;20043;-81
2023/05/15 03:44:02;;;;;;;56.60;30.15;;;13.30;99.90;;;;;;5025925;28;20059;-81
2023/05/15 03:46:28;;;;;;;59.80;33.17;;;13.30;99.90;;;;;;5027652;28;20037;-79
2023/05/15 03:48:54;;;;;;;53.05;31.70;;;13.20;99.90;;;;;;5040127;28;20040;-81
2023/05/15 03:51:20;;;;;;;47.05;26.90;;;13.20;99.90;;;;;;5041775;28;20029;-81
2023/05/15 03:53:46;;;;;;;51.67;30.38;;;13.20;99.90;;;;;;5042897;28;20032;-81
2023/05/15 03:56:11;;;;;;;49.10;28.75;;;13.30;99.80;;;;;;5026730;28;20033;-81
2023/05/15 03:58:37;;;;;;;56.67;31.27;;;13.30;99.50;;;;;;5009009;28;20033;-80
2023/05/15 04:01:02;;;;;;;40.03;22.48;;;13.40;99.90;;;;;;5008755;28;20083;-80
2023/05/15 04:03:28;;;;;;;53.72;31.70;;;13.40;99.30;;;;;;5043652;28;20029;-79
2023/05/15 04:05:54;;;;;;;56.15;32.25;;;13.40;99.90;;;;;;5026823;28;20128;-80
2023/05/15 04:08:19;;;;;;;52.35;31.73;;;13.30;99.90;;;;;;5011582;28;20380;-79
2023/05/15 04:10:45;;;;;;;62.10;35.38;;;13.30;99.80;;;;;;5042417;28;20079;-80
2023/05/15 04:13:10;;;;;;;58.28;33.13;;;13.40;99.90;;;;;;5041169;28;20048;-79
2023/05/15 04:15:36;;;;;;;57.65;32.00;;;13.30;99.90;;;;;;5009730;28;20087;-79
2023/05/15 04:18:01;;;;;;;51.13;31.10;;;13.40;99.90;;;;;;5027678;28;20116;-79
2023/05/15 04:20:27;;;;;;;44.83;25.42;;;13.40;99.20;;;;;;5026712;28;20040;-80
2023/05/15 04:22:52;;;;;;;53.20;31.77;;;13.40;99.70;;;;;;5035797;28;20056;-79
2023/05/15 04:25:19;;;;;;;53.80;32.00;;;13.40;99.90;;;;;;5042768;28;20108;-80
2023/05/15 04:27:45;;;;;;;48.70;28.98;;;13.40;99.60;;;;;;5026826;28;20497;-81
2023/05/15 04:30:11;;;;;;;37.88;24.42;;;13.40;99.90;;;;;;5026415;28;20183;-79
2023/05/15 04:32:37;;;;;;;47.15;28.70;;;13.30;99.90;;;;;;5037286;28;20040;-79
2023/05/15 04:35:08;;;;;;;48.20;30.45;;;13.40;99.90;;;;;;5026038;28;20060;-80
2023/05/15 04:37:37;;;;;;;44.42;29.98;;;13.50;99.40;;;;;;5042930;28;20124;-79
2023/05/15 04:40:05;;;;;;;45.13;30.90;;;13.50;99.80;;;;;;5024995;28;20549;-80
2023/05/15 04:42:30;;;;;;;47.03;31.05;;;13.60;99.90;;;;;;5040925;28;20112;-80
2023/05/15 04:44:56;;;;;;;47.92;32.67;;;13.60;99.90;;;;;;5026882;28;20576;-81
2023/05/15 04:47:23;;;;;;;54.03;34.80;;;13.60;99.90;;;;;;5024921;28;20452;-80
2023/05/15 04:49:49;;;;;;;35.35;24.05;;;13.50;99.90;;;;;;5009752;28;20041;-80
2023/05/15 04:52:15;;;;;;;40.58;28.02;;;13.60;99.90;;;;;;5025215;28;20511;-80
2023/05/15 04:54:40;;;;;;;38.45;25.15;;;13.70;99.90;;;;;;5025634;28;20060;-80
2023/05/15 04:57:06;;;;;;;34.38;22.45;;;13.70;99.90;;;;;;5039032;28;20045;-80
2023/05/15 04:59:32;;;;;;;37.67;23.45;;;13.80;99.80;;;;;;5040991;28;20113;-80
2023/05/15 05:01:58;;;;;;;36.17;20.80;;;13.80;99.80;;;;;;5036838;28;20033;-80
2023/05/15 05:04:23;;;;;;;36.00;22.75;;;13.80;99.90;;;;;;5026544;28;20246;-79
2023/05/15 05:06:49;;;;;;;38.15;24.20;;;13.80;99.60;;;;;;5007871;28;20477;-80
2023/05/15 05:09:15;;;;;;;56.00;34.05;;;13.80;99.80;;;;;;5037015;28;20480;-80
2023/05/15 05:11:43;;;;;;;60.55;38.80;;;13.80;98.60;;;;;;5003443;28;20063;-80
2023/05/15 05:14:09;;;;;;;58.40;39.72;;;13.80;99.90;;;;;;5026168;28;20064;-80
2023/05/15 05:16:35;;;;;;;72.63;45.95;;;13.80;99.50;;;;;;5002580;28;20037;-78
2023/05/15 05:19:01;;;;;;;69.00;44.78;;;13.70;99.70;;;;;;5025375;28;20392;-77
2023/05/15 05:21:26;;;;;;;47.22;29.38;;;13.80;99.70;;;;;;5009399;28;20083;-77
2023/05/15 05:23:52;;;;;;;73.07;47.30;;;13.80;99.60;;;;;;5024423;28;20025;-79
2023/05/15 05:26:18;;;;;;;82.03;50.75;;;13.90;99.80;;;;;;5039504;28;20033;-77
2023/05/15 05:28:43;;;;;;;83.70;52.60;;;13.90;99.40;;;;;;5025363;28;20037;-78
2023/05/15 05:31:09;;;;;;;100.50;54.58;;;13.90;99.00;;;;;;5041099;28;20072;-77
2023/05/15 05:33:35;;;;;;;67.40;41.53;;;14.00;98.50;;;;;;5040092;28;20540;-76
2023/05/15 05:36:00;;;;;;;52.60;34.28;;;14.10;99.20;;;;;;5038387;28;20032;-77
2023/05/15 05:38:26;;;;;;;68.85;37.20;;;14.10;98.90;;;;;;5025232;28;20485;-76
2023/05/15 05:40:52;;;;;;;72.72;41.75;;;14.20;99.00;;;;;;5024985;28;20025;-77
2023/05/15 05:43:19;;;;;;;58.00;35.30;;;14.20;98.80;;;;;;5042798;28;20036;-76
2023/05/15 05:45:45;;;;;;;59.70;35.47;;;14.30;98.60;;;;;;5025552;28;20488;-77
2023/05/15 05:48:12;;;;;;;62.60;35.90;;;14.40;99.00;;;;;;5040514;28;20029;-77
2023/05/15 05:50:38;;;;;;;63.88;36.17;;;14.40;98.70;;;;;;5008991;28;20028;-77
2023/05/15 05:53:03;;;;;;;67.90;35.35;;;14.50;98.60;;;;;;5007686;28;20036;-77
2023/05/15 05:55:29;;;;;;;60.25;32.67;;;14.60;99.00;;;;;;5023667;28;20045;-77
2023/05/15 05:57:54;;;;;;;101.45;56.83;;;14.60;99.10;;;;;;5039733;28;20051;-78
2023/05/15 06:00:20;;;;;;;76.70;39.97;;;14.60;99.80;;;;;;5025699;28;20143;-77
2023/05/15 06:02:46;;;;;;;83.65;44.72;;;14.70;99.10;;;;;;5038725;28;20437;-77
2023/05/15 06:05:12;;;;;;;94.70;49.72;;;14.70;98.70;;;;;;5025276;28;20029;-77
2023/05/15 06:07:37;;;;;;;85.10;45.63;;;14.70;99.70;;;;;;5040215;28;20029;-77
2023/05/15 06:10:03;;;;;;;94.55;53.50;;;14.80;99.00;;;;;;5037720;28;20551;-77
2023/05/15 06:12:29;;;;;;;86.85;44.97;;;14.80;99.00;;;;;;5020784;28;20037;-77
2023/05/15 06:14:55;;;;;;;110.43;58.55;;;14.80;99.40;;;;;;5039340;28;20045;-76
2023/05/15 06:17:20;;;;;;;110.40;57.25;;;14.80;99.50;;;;;;5042387;28;20037;-77
2023/05/15 06:19:46;;;;;;;68.78;38.88;;;14.90;99.40;;;;;;5001283;28;20036;-77
2023/05/15 06:22:11;;;;;;;88.72;45.67;;;15.00;99.10;;;;;;5022795;28;20041;-76
2023/05/15 06:24:37;;;;;;;98.93;55.20;;;15.10;99.20;;;;;;5011791;28;20049;-78
2023/05/15 06:27:02;;;;;;;105.53;58.63;;;15.10;99.20;;;;;;5028375;28;20116;-78
2023/05/15 06:29:28;;;;;;;88.07;43.33;;;15.10;99.10;;;;;;5012230;28;20062;-78
2023/05/15 06:31:53;;;;;;;125.47;64.65;;;15.20;99.20;;;;;;5035097;28;20033;-77
2023/05/15 06:34:19;;;;;;;96.82;54.05;;;15.10;99.70;;;;;;5044926;28;20111;-76
2023/05/15 06:36:44;;;;;;;102.38;52.40;;;15.20;99.50;;;;;;5044043;28;20037;-76
2023/05/15 06:39:10;;;;;;;93.95;48.72;;;15.30;99.00;;;;;;5043291;28;20131;-77
2023/05/15 06:41:37;;;;;;;82.78;44.28;;;15.40;99.10;;;;;;5025484;28;20039;-76
2023/05/15 06:44:03;;;;;;;107.68;57.75;;;15.50;99.40;;;;;;5024853;28;20033;-77
2023/05/15 06:46:28;;;;;;;113.00;64.45;;;15.60;99.70;;;;;;5028169;28;20033;-78
2023/05/15 06:48:54;;;;;;;93.70;51.28;;;15.70;99.90;;;;;;5044887;28;20408;-77
2023/05/15 06:51:21;;;;;;;94.05;52.17;;;15.80;99.90;;;;;;5040857;28;20041;-78
2023/05/15 06:53:46;;;;;;;121.07;52.95;;;15.90;99.90;;;;;;5044581;28;20480;-76
2023/05/15 06:56:12;;;;;;;85.20;47.00;;;16.00;99.90;;;;;;5039223;28;20032;-76
2023/05/15 06:58:37;;;;;;;90.57;50.90;;;16.00;99.70;;;;;;5028189;28;20039;-78
2023/05/15 07:01:04;;;;;;;98.00;55.03;;;16.20;99.90;;;;;;5027231;28;20121;-75
2023/05/15 07:03:30;;;;;;;84.68;47.03;;;16.20;99.90;;;;;;5029125;28;20485;-75
2023/05/15 07:05:56;;;;;;;89.50;50.78;;;16.30;99.60;;;;;;5041831;28;20044;-75
2023/05/15 07:08:21;;;;;;;84.15;46.90;;;16.20;99.40;;;;;;5029074;28;20612;-78
2023/05/15 07:10:48;;;;;;;82.63;51.25;;;16.20;99.20;;;;;;5028088;28;20037;-78
2023/05/15 07:13:15;;;;;;;91.47;53.03;;;16.30;99.80;;;;;;5026732;28;20086;-77
2023/05/15 07:15:41;;;;;;;76.57;45.20;;;16.30;99.70;;;;;;5023639;28;20113;-77
2023/05/15 07:18:06;;;;;;;89.32;54.50;;;16.50;99.90;;;;;;5028619;28;20171;-78
2023/05/15 07:20:32;;;;;;;78.00;47.70;;;16.50;99.90;;;;;;5028681;28;20025;-76
2023/05/15 07:22:57;;;;;;;74.07;47.60;;;16.50;99.60;;;;;;5042712;28;20104;-77
2023/05/15 07:25:23;;;;;;;71.53;46.72;;;16.70;99.90;;;;;;5041851;28;20056;-76
2023/05/15 07:27:49;;;;;;;67.75;44.83;;;16.80;99.90;;;;;;5027074;28;20420;-77
2023/05/15 07:30:15;;;;;;;67.07;42.40;;;17.00;99.90;;;;;;5041737;28;20087;-77
2023/05/15 07:32:40;;;;;;;63.83;41.35;;;17.20;99.90;;;;;;5043429;28;20036;-76
2023/05/15 07:35:06;;;;;;;59.65;37.03;;;17.30;99.90;;;;;;5027469;28;20887;-76
2023/05/15 07:37:32;;;;;;;57.78;40.53;;;17.50;99.90;;;;;;5043822;28;20029;-77
2023/05/15 07:39:57;;;;;;;55.40;37.08;;;17.80;99.60;;;;;;5042593;28;20029;-76
2023/05/15 07:42:24;;;;;;;52.25;35.50;;;17.80;98.80;;;;;;5043361;28;20029;-76
2023/05/15 07:44:49;;;;;;;48.20;35.80;;;18.10;98.60;;;;;;5043300;28;20037;-77
2023/05/15 07:47:15;;;;;;;43.35;30.30;;;18.20;99.40;;;;;;5043120;28;20041;-76
2023/05/15 07:49:41;;;;;;;44.20;33.90;;;18.30;98.50;;;;;;5041074;28;20140;-76
2023/05/15 07:52:06;;;;;;;40.13;28.95;;;18.60;99.20;;;;;;5027442;28;20044;-77
2023/05/15 07:54:32;;;;;;;41.90;28.15;;;18.80;98.90;;;;;;5044616;28;20053;-77
2023/05/15 07:56:58;;;;;;;35.42;27.70;;;18.90;98.30;;;;;;5043770;28;20025;-76
2023/05/15 07:59:23;;;;;;;34.60;25.90;;;19.00;98.30;;;;;;5042543;28;20504;-76
2023/05/15 08:01:49;;;;;;;32.75;23.60;;;19.10;97.70;;;;;;5009535;28;20051;-76
2023/05/15 08:04:14;;;;;;;36.15;23.88;;;19.10;97.70;;;;;;5026826;28;20037;-76
2023/05/15 08:06:41;;;;;;;28.92;23.23;;;19.20;97.50;;;;;;5041860;28;20029;-76
2023/05/15 08:09:07;;;;;;;28.50;21.55;;;19.40;97.40;;;;;;5040846;28;20040;-77
2023/05/15 08:11:32;;;;;;;27.35;21.60;;;19.60;96.60;;;;;;5027079;28;20044;-77
2023/05/15 08:13:58;;;;;;;28.13;20.73;;;19.70;96.30;;;;;;5041386;28;20044;-77
2023/05/15 08:16:23;;;;;;;24.52;18.63;;;20.00;97.00;;;;;;5026175;28;20542;-77
2023/05/15 08:18:52;;;;;;;22.98;17.45;;;20.30;96.70;;;;;;5024676;28;20041;-77
2023/05/15 08:21:17;;;;;;;24.83;17.88;;;20.40;96.50;;;;;;5036833;28;20637;-77
2023/05/15 08:23:43;;;;;;;25.88;18.70;;;20.70;96.00;;;;;;5026550;28;20079;-77
2023/05/15 08:26:08;;;;;;;27.55;21.52;;;20.80;95.50;;;;;;5042955;28;20033;-77
2023/05/15 08:28:34;;;;;;;29.65;19.10;;;21.00;95.30;;;;;;5043006;28;20052;-78
2023/05/15 08:30:59;;;;;;;27.38;18.27;;;21.20;94.90;;;;;;5026530;28;20049;-77
2023/05/15 08:33:25;;;;;;;24.77;17.20;;;21.50;94.50;;;;;;5024846;28;20076;-77
2023/05/15 08:35:51;;;;;;;20.50;17.00;;;21.70;94.30;;;;;;5040290;28;20032;-77
2023/05/15 08:38:16;;;;;;;17.50;13.27;;;21.90;93.90;;;;;;5044804;28;20040;-77
2023/05/15 08:40:45;;;;;;;21.25;14.00;;;22.00;93.60;;;;;;5042871;28;20424;-76
2023/05/15 08:43:15;;;;;;;16.70;14.02;;;22.00;93.30;;;;;;5010548;28;20048;-77
2023/05/15 08:45:40;;;;;;;15.52;13.63;;;22.20;93.10;;;;;;5026546;28;20551;-76
2023/05/15 08:48:21;;;;;;;15.82;13.20;;;22.10;93.10;;;;;;5026423;28;20037;-76
2023/05/15 08:50:46;;;;;;;20.67;15.43;;;22.50;92.40;;;;;;5026201;28;20048;-75
2023/05/15 08:53:12;;;;;;;18.30;14.98;;;22.80;91.70;;;;;;5026138;28;20033;-76
2023/05/15 08:55:38;;;;;;;16.48;13.93;;;22.80;91.80;;;;;;5039540;28;20051;-76
2023/05/15 08:58:03;;;;;;;25.63;19.95;;;23.00;91.60;;;;;;5024891;28;20036;-76
2023/05/15 09:00:29;;;;;;;25.33;17.15;;;23.20;91.70;;;;;;5025790;28;20025;-76
2023/05/15 09:02:58;;;;;;;16.35;14.25;;;23.50;90.80;;;;;;5042086;28;20032;-76
2023/05/15 09:05:23;;;;;;;18.73;13.23;;;23.50;89.40;;;;;;5040909;28;20021;-76
2023/05/15 09:07:49;;;;;;;16.80;11.43;;;23.50;90.30;;;;;;5040996;28;20028;-76
2023/05/15 09:10:14;;;;;;;20.42;16.27;;;23.70;89.70;;;;;;5025583;28;20560;-76
2023/05/15 09:12:42;;;;;;;21.25;13.73;;;23.90;89.70;;;;;;5041486;28;20401;-77
2023/05/15 09:15:12;;;;;;;21.27;11.30;;;24.10;89.40;;;;;;5041371;28;20037;-76
2023/05/15 09:17:38;;;;;;;13.52;10.23;;;24.20;86.60;;;;;;5039694;28;20549;-77
2023/05/15 09:20:04;;;;;;;12.70;10.73;;;24.30;87.20;;;;;;5007768;28;20029;-77
2023/05/15 09:22:33;;;;;;;18.70;12.43;;;24.50;87.10;;;;;;5037260;28;20115;-76
2023/05/15 09:24:58;;;;;;;14.90;11.60;;;24.80;84.20;;;;;;5039498;28;20120;-76
2023/05/15 09:27:24;;;;;;;15.98;11.65;;;24.90;83.60;;;;;;5023120;28;20116;-76
2023/05/15 09:29:53;;;;;;;19.58;13.95;;;24.90;84.00;;;;;;5039849;28;20044;-78
2023/05/15 09:32:18;;;;;;;14.23;12.00;;;24.80;84.50;;;;;;5038454;28;20657;-77
2023/05/15 09:34:44;;;;;;;21.48;15.70;;;25.00;84.00;;;;;;5008045;28;20056;-77
2023/05/15 09:37:26;;;;;;;18.08;13.07;;;25.30;81.70;;;;;;5041509;28;20041;-77
2023/05/15 09:39:51;;;;;;;14.73;10.52;;;25.40;83.60;;;;;;5026815;28;20112;-77
2023/05/15 09:42:17;;;;;;;20.48;14.20;;;25.50;82.20;;;;;;5037242;28;20448;-77
2023/05/15 09:44:43;;;;;;;12.88;8.90;;;25.70;81.00;;;;;;5025301;28;20039;-77
2023/05/15 09:47:09;;;;;;;18.42;12.95;;;25.70;80.80;;;;;;5023378;28;20452;-77
2023/05/15 09:49:35;;;;;;;13.15;11.20;;;25.80;80.10;;;;;;5024217;28;20043;-78
2023/05/15 09:52:01;;;;;;;17.55;11.93;;;25.90;78.90;;;;;;5039000;28;20455;-78
2023/05/15 09:54:26;;;;;;;17.02;13.23;;;26.00;79.30;;;;;;5025686;28;20032;-77
2023/05/15 09:56:52;;;;;;;10.50;9.13;;;26.10;78.60;;;;;;5024013;28;20136;-78
2023/05/15 09:59:20;;;;;;;10.27;8.68;;;26.30;77.80;;;;;;5040021;28;20029;-78
2023/05/15 10:01:47;;;;;;;15.07;9.32;;;26.30;76.20;;;;;;5039624;28;20033;-78
2023/05/15 10:04:12;;;;;;;17.15;11.88;;;26.30;77.10;;;;;;5018408;28;20106;-78
2023/05/15 10:06:47;;;;;;;17.00;10.77;;;26.50;76.50;;;;;;5040760;28;20464;-78
2023/05/15 10:09:13;;;;;;;10.67;9.57;;;26.50;75.50;;;;;;5022166;28;20060;-77
2023/05/15 10:11:42;;;;;;;9.77;8.77;;;26.70;74.50;;;;;;5023231;28;20044;-77
2023/05/15 10:14:11;;;;;;;10.25;7.47;;;26.80;75.80;;;;;;5039408;28;20129;-77
2023/05/15 10:16:37;;;;;;;9.88;8.15;;;26.90;73.70;;;;;;5007866;28;20029;-77
2023/05/15 10:19:07;;;;;;;8.77;7.60;;;27.10;73.40;;;;;;5008423;28;20029;-77
2023/05/15 10:21:33;;;;;;;9.43;5.78;;;26.90;73.80;;;;;;5024128;28;20384;-77
2023/05/15 10:23:59;;;;;;;10.43;8.23;;;27.10;73.10;;;;;;5038732;28;20041;-78
2023/05/15 10:26:37;;;;;;;6.95;5.88;;;27.30;71.70;;;;;;5023469;28;20052;-78
2023/05/15 10:29:10;;;;;;;11.15;8.77;;;27.40;71.70;;;;;;5032836;28;20037;-77
2023/05/15 10:31:36;;;;;;;9.63;8.15;;;27.60;71.20;;;;;;5008855;28;20119;-78
2023/05/15 10:34:03;;;;;;;7.93;5.88;;;27.70;70.90;;;;;;5021780;28;20157;-78
2023/05/15 10:36:29;;;;;;;7.90;7.10;;;27.90;69.80;;;;;;5007504;28;20037;-77
2023/05/15 10:38:55;;;;;;;7.80;7.00;;;27.90;69.60;;;;;;5020282;28;20118;-77
2023/05/15 10:41:21;;;;;;;12.40;8.18;;;28.10;67.70;;;;;;5038459;28;20028;-78
2023/05/15 10:43:48;;;;;;;9.57;7.53;;;28.00;67.90;;;;;;5007622;28;20064;-78
2023/05/15 10:46:14;;;;;;;13.57;8.27;;;28.30;67.50;;;;;;5006021;28;20179;-77
2023/05/15 10:48:40;;;;;;;7.05;6.07;;;28.40;66.70;;;;;;5005814;28;20055;-78
2023/05/15 10:51:16;;;;;;;7.72;6.25;;;28.50;66.60;;;;;;5024170;28;20497;-78
2023/05/15 10:53:43;;;;;;;8.80;7.80;;;28.60;67.20;;;;;;5022302;28;20033;-77
2023/05/15 10:56:13;;;;;;;14.02;7.78;;;28.70;67.50;;;;;;5006953;28;20036;-78
2023/05/15 10:58:42;;;;;;;8.90;7.90;;;29.00;66.10;;;;;;5021165;28;20365;-78
2023/05/15 11:01:25;;;;;;;9.18;5.90;;;29.00;65.30;;;;;;5005973;28;20172;-77
2023/05/15 11:03:51;;;;;;;9.18;6.40;;;29.30;65.50;;;;;;5035038;28;20160;-78
2023/05/15 11:06:16;;;;;;;8.82;5.65;;;29.50;63.60;;;;;;5029367;28;20688;-78
2023/05/15 11:08:43;;;;;;;9.45;5.65;;;29.70;63.20;;;;;;5011197;28;20033;-78
2023/05/15 11:11:43;;;;;;;9.45;6.10;;;29.60;64.10;;;;;;5010398;28;20389;-78
2023/05/15 11:14:09;;;;;;;9.85;6.65;;;29.80;61.10;;;;;;5038555;28;20096;-78
2023/05/15 11:16:53;;;;;;;12.70;7.32;;;30.00;58.10;;;;;;5034830;28;20431;-78
2023/05/15 11:19:24;;;;;;;5.80;5.20;;;30.00;56.90;;;;;;5043650;28;20030;-78
2023/05/15 11:21:57;;;;;;;6.28;5.47;;;30.00;59.60;;;;;;5028460;28;20401;-79
2023/05/15 11:24:36;;;;;;;10.68;5.32;;;30.00;57.90;;;;;;5026732;28;20036;-78
2023/05/15 11:27:02;;;;;;;7.00;5.90;;;30.00;59.30;;;;;;5011026;28;20029;-80
2023/05/15 11:29:28;;;;;;;6.63;5.05;;;30.00;57.80;;;;;;5011918;28;20041;-77
2023/05/15 11:31:54;;;;;;;8.10;6.18;;;29.70;59.50;;;;;;5040587;28;20451;-78
2023/05/15 11:34:32;;;;;;;11.57;5.00;;;29.90;58.90;;;;;;5027661;28;20040;-78
2023/05/15 11:36:59;;;;;;;5.32;4.30;;;29.90;57.30;;;;;;5008363;28;20037;-78
2023/05/15 11:39:25;;;;;;;5.80;5.30;;;29.70;57.40;;;;;;5028570;28;20048;-78
2023/05/15 11:41:50;;;;;;;5.60;4.78;;;29.80;57.00;;;;;;5011844;28;20029;-78
2023/05/15 11:44:22;;;;;;;10.07;4.80;;;29.80;58.40;;;;;;5027301;28;20032;-78
2023/05/15 11:46:50;;;;;;;6.82;5.30;;;29.70;57.90;;;;;;4317785;28;10000380;-79
2023/05/15 11:49:17;;;;;;;10.70;4.60;;;30.00;56.20;;;;;;5024803;28;20828;-78
2023/05/15 11:51:43;;;;;;;5.75;4.78;;;30.00;54.50;;;;;;5008950;28;20054;-78
2023/05/15 11:54:13;;;;;;;10.50;4.82;;;30.20;55.20;;;;;;5007487;28;20086;-78
2023/05/15 11:56:43;;;;;;;6.55;4.85;;;30.10;53.40;;;;;;5007301;28;20029;-78
2023/05/15 11:59:09;;;;;;;5.13;3.75;;;30.10;54.30;;;;;;5020298;28;20090;-78
2023/05/15 12:01:41;;;;;;;3.90;3.40;;;29.90;53.30;;;;;;5008045;28;20526;-78
2023/05/15 12:04:16;;;;;;;3.95;3.58;;;29.80;53.10;;;;;;5006335;28;20041;-78
2023/05/15 12:06:43;;;;;;;5.43;3.75;;;29.70;55.00;;;;;;5039297;28;20063;-83
2023/05/15 12:09:15;;;;;;;6.30;3.88;;;29.80;52.20;;;;;;5008162;28;20667;-83
2023/05/15 12:11:46;;;;;;;12.15;4.68;;;29.90;53.10;;;;;;5027226;28;20029;-83
2023/05/15 12:14:11;;;;;;;5.80;3.90;;;29.90;49.40;;;;;;5024454;28;20887;-84
2023/05/15 12:16:37;;;;;;;6.90;2.80;;;29.90;51.40;;;;;;5025925;28;20029;-83
2023/05/15 12:19:03;;;;;;;9.52;4.13;;;30.00;54.10;;;;;;5008639;28;20030;-84
2023/05/15 12:21:29;;;;;;;5.85;3.60;;;29.90;54.20;;;;;;5025975;28;20029;-85
2023/05/15 12:23:55;;;;;;;5.35;3.50;;;30.30;52.80;;;;;;5040155;28;20040;-84
2023/05/15 12:26:22;;;;;;;7.85;4.32;;;30.20;53.00;;;;;;5042479;28;20029;-84
2023/05/15 12:28:47;;;;;;;4.65;3.00;;;30.40;52.90;;;;;;5026681;28;20025;-85
2023/05/15 12:31:13;;;;;;;5.10;4.57;;;30.50;53.10;;;;;;5026385;28;20495;-84